createdAt,value
2019-05-25T00:00:05.410Z,9.50
2019-05-25T00:01:05.390Z,7.90
2019-05-25T00:02:05.377Z,9.50
2019-05-25T00:03:05.553Z,9.90
2019-05-25T00:04:05.369Z,9.70
2019-05-25T00:05:05.366Z,7.50
2019-05-25T00:06:05.340Z,9.70
2019-05-25T00:07:05.322Z,7.80
2019-05-25T00:08:05.321Z,7.20
2019-05-25T00:09:05.302Z,8.60
2019-05-25T00:10:05.295Z,7.80
2019-05-25T00:11:05.303Z,7.50
2019-05-25T00:12:05.305Z,10.70
2019-05-25T00:13:05.273Z,9.70
2019-05-25T00:14:05.431Z,6.90
2019-05-25T00:15:05.240Z,8.60
2019-05-25T00:16:05.230Z,9.30
2019-05-25T00:17:05.216Z,9.30
2019-05-25T00:18:05.216Z,6.60
2019-05-25T00:19:05.199Z,7.50
2019-05-25T00:20:05.180Z,7.10
2019-05-25T00:21:05.171Z,6.80
2019-05-25T00:22:05.168Z,7.60
2019-05-25T00:23:05.163Z,7.90
2019-05-25T00:24:12.359Z,15.00
2019-05-25T00:25:06.127Z,9.40
2019-05-25T00:26:05.115Z,10.30
2019-05-25T00:27:05.118Z,9.40
2019-05-25T00:28:05.116Z,12.40
2019-05-25T00:29:05.092Z,9.70
2019-05-25T00:30:05.071Z,9.00
2019-05-25T00:31:05.067Z,9.50
2019-05-25T00:32:05.057Z,7.60
2019-05-25T00:33:05.045Z,8.50
2019-05-25T00:34:05.028Z,14.40
2019-05-25T00:35:05.021Z,9.40
2019-05-25T00:36:05.010Z,9.30
2019-05-25T00:37:04.995Z,8.00
2019-05-25T00:38:04.996Z,9.70
2019-05-25T00:39:05.034Z,9.00
2019-05-25T00:40:04.962Z,7.80
2019-05-25T00:41:04.950Z,8.50
2019-05-25T00:42:04.945Z,8.80
2019-05-25T00:43:04.955Z,12.00
2019-05-25T00:44:04.918Z,8.10
2019-05-25T00:45:04.913Z,7.90
2019-05-25T00:46:04.909Z,6.60
2019-05-25T00:47:04.886Z,9.60
2019-05-25T00:48:04.884Z,10.90
2019-05-25T00:49:04.862Z,7.30
2019-05-25T00:50:04.853Z,8.20
2019-05-25T00:51:04.890Z,7.00
2019-05-25T00:52:04.831Z,8.40
2019-05-25T00:53:04.824Z,9.40
2019-05-25T00:54:04.817Z,10.90
2019-05-25T00:55:04.800Z,9.00
2019-05-25T00:56:04.788Z,9.80
2019-05-25T00:57:04.830Z,8.40
2019-05-25T00:58:04.808Z,9.20
2019-05-25T00:59:04.805Z,10.00
2019-05-25T01:00:04.748Z,7.90
2019-05-25T01:01:04.969Z,8.70
2019-05-25T01:02:04.727Z,8.40
2019-05-25T01:03:04.729Z,10.00
2019-05-25T01:04:04.700Z,9.70
2019-05-25T01:05:04.696Z,8.70
2019-05-25T01:06:04.692Z,9.70
2019-05-25T01:07:04.668Z,9.90
2019-05-25T01:08:04.661Z,12.80
2019-05-25T01:09:04.662Z,9.10
2019-05-25T01:10:04.642Z,10.70
2019-05-25T01:11:04.624Z,7.90
2019-05-25T01:12:04.618Z,8.50
2019-05-25T01:13:04.617Z,10.10
2019-05-25T01:14:05.030Z,10.30
2019-05-25T01:15:04.580Z,8.80
2019-05-25T01:16:04.576Z,9.00
2019-05-25T01:17:04.560Z,8.00
2019-05-25T01:18:04.581Z,8.60
2019-05-25T01:19:04.537Z,10.00
2019-05-25T01:20:04.529Z,14.10
2019-05-25T01:21:04.515Z,8.60
2019-05-25T01:22:04.508Z,7.80
2019-05-25T01:23:04.523Z,10.30
2019-05-25T01:24:04.504Z,7.40
2019-05-25T01:25:04.482Z,10.00
2019-05-25T01:26:04.461Z,7.40
2019-05-25T01:27:04.450Z,10.80
2019-05-25T01:28:04.438Z,8.40
2019-05-25T01:29:04.438Z,9.70
2019-05-25T01:30:04.445Z,7.50
2019-05-25T01:31:04.419Z,9.10
2019-05-25T01:32:04.402Z,8.40
2019-05-25T01:33:04.403Z,9.40
2019-05-25T01:34:04.386Z,9.10
2019-05-25T01:35:04.366Z,9.90
2019-05-25T01:36:04.352Z,10.20
2019-05-25T01:37:04.359Z,8.20
2019-05-25T01:38:04.334Z,8.30
2019-05-25T01:39:04.328Z,8.00
2019-05-25T01:40:04.343Z,9.20
2019-05-25T01:41:04.298Z,7.30
2019-05-25T01:42:04.286Z,7.60
2019-05-25T01:43:04.281Z,14.20
2019-05-25T01:44:04.279Z,9.40
2019-05-25T01:45:04.278Z,9.40
2019-05-25T01:46:04.244Z,8.60
2019-05-25T01:47:04.234Z,8.20
2019-05-25T01:48:04.231Z,7.30
2019-05-25T01:49:04.221Z,10.50
2019-05-25T01:50:04.199Z,11.30
2019-05-25T01:51:04.191Z,7.80
2019-05-25T01:52:04.202Z,10.70
2019-05-25T01:53:04.178Z,6.40
2019-05-25T01:54:04.172Z,10.40
2019-05-25T01:55:04.145Z,9.60
2019-05-25T01:56:04.133Z,6.20
2019-05-25T01:57:04.129Z,12.50
2019-05-25T01:58:04.117Z,10.00
2019-05-25T01:59:04.117Z,9.20
2019-05-25T02:00:04.103Z,8.30
2019-05-25T02:01:04.081Z,11.20
2019-05-25T02:02:04.078Z,8.70
2019-05-25T02:03:04.057Z,10.80
2019-05-25T02:04:04.063Z,6.50
2019-05-25T02:05:04.047Z,11.20
2019-05-25T02:06:04.030Z,10.80
2019-05-25T02:07:04.015Z,12.50
2019-05-25T02:08:04.007Z,9.70
2019-05-25T02:09:04.005Z,8.00
2019-05-25T02:10:03.999Z,9.30
2019-05-25T02:11:03.972Z,11.90
2019-05-25T02:12:03.963Z,8.10
2019-05-25T02:13:03.950Z,10.50
2019-05-25T02:14:03.971Z,11.40
2019-05-25T02:15:03.928Z,12.00
2019-05-25T02:16:03.928Z,7.80
2019-05-25T02:17:03.912Z,9.30
2019-05-25T02:18:03.899Z,9.60
2019-05-25T02:19:03.889Z,10.80
2019-05-25T02:20:03.875Z,9.20
2019-05-25T02:21:03.962Z,9.00
2019-05-25T02:22:03.858Z,10.10
2019-05-25T02:23:03.857Z,9.60
2019-05-25T02:24:03.834Z,9.20
2019-05-25T02:25:16.863Z,8.50
2019-05-25T02:26:04.809Z,8.60
2019-05-25T02:27:03.799Z,9.30
2019-05-25T02:28:03.790Z,9.80
2019-05-25T02:29:03.787Z,8.20
2019-05-25T02:30:03.791Z,7.70
2019-05-25T02:31:03.762Z,10.90
2019-05-25T02:32:03.746Z,11.00
2019-05-25T02:33:03.734Z,11.50
2019-05-25T02:34:03.735Z,9.70
2019-05-25T02:35:03.711Z,9.20
2019-05-25T02:36:03.707Z,11.50
2019-05-25T02:37:03.689Z,8.90
2019-05-25T02:38:03.688Z,9.40
2019-05-25T02:39:03.682Z,10.10
2019-05-25T02:40:03.657Z,9.30
2019-05-25T02:41:03.646Z,9.90
2019-05-25T02:42:03.641Z,10.00
2019-05-25T02:43:03.630Z,12.40
2019-05-25T02:44:03.611Z,10.40
2019-05-25T02:45:03.604Z,14.60
2019-05-25T02:46:03.593Z,8.70
2019-05-25T02:47:03.594Z,9.80
2019-05-25T02:48:03.597Z,10.10
2019-05-25T02:49:03.559Z,10.60
2019-05-25T02:50:03.701Z,12.50
2019-05-25T02:51:03.540Z,10.30
2019-05-25T02:52:03.527Z,9.80
2019-05-25T02:53:03.515Z,10.10
2019-05-25T02:54:03.504Z,10.10
2019-05-25T02:55:03.498Z,9.20
2019-05-25T02:56:03.487Z,10.60
2019-05-25T02:57:03.474Z,12.10
2019-05-25T02:58:03.464Z,11.20
2019-05-25T02:59:03.449Z,11.00
2019-05-25T03:00:03.454Z,10.20
2019-05-25T03:01:03.426Z,8.10
2019-05-25T03:02:03.415Z,9.40
2019-05-25T03:03:03.405Z,11.10
2019-05-25T03:04:03.396Z,10.00
2019-05-25T03:05:03.390Z,11.10
2019-05-25T03:06:03.794Z,7.60
2019-05-25T03:07:03.366Z,10.00
2019-05-25T03:08:03.353Z,11.90
2019-05-25T03:09:03.337Z,11.60
2019-05-25T03:10:03.349Z,10.10
2019-05-25T03:11:03.319Z,11.40
2019-05-25T03:12:03.319Z,9.40
2019-05-25T03:13:03.292Z,10.50
2019-05-25T03:14:03.302Z,10.10
2019-05-25T03:15:03.674Z,11.80
2019-05-25T03:16:03.266Z,9.10
2019-05-25T03:17:03.288Z,13.10
2019-05-25T03:18:03.454Z,8.40
2019-05-25T03:19:03.226Z,8.80
2019-05-25T03:20:03.244Z,9.40
2019-05-25T03:21:03.209Z,10.00
2019-05-25T03:22:03.199Z,10.20
2019-05-25T03:23:03.189Z,11.40
2019-05-25T03:24:03.171Z,11.00
2019-05-25T03:25:03.172Z,9.70
2019-05-25T03:26:03.146Z,9.50
2019-05-25T03:27:03.136Z,11.10
2019-05-25T03:28:03.132Z,10.80
2019-05-25T03:29:03.118Z,12.00
2019-05-25T03:30:03.105Z,9.60
2019-05-25T03:31:03.100Z,9.80
2019-05-25T03:32:03.085Z,9.30
2019-05-25T03:33:03.091Z,10.90
2019-05-25T03:34:03.062Z,10.40
2019-05-25T03:35:03.077Z,10.80
2019-05-25T03:36:03.038Z,10.70
2019-05-25T03:37:03.030Z,9.90
2019-05-25T03:38:03.082Z,10.70
2019-05-25T03:39:03.003Z,10.40
2019-05-25T03:40:03.002Z,10.70
2019-05-25T03:41:02.995Z,10.50
2019-05-25T03:42:02.969Z,12.80
2019-05-25T03:43:02.965Z,10.00
2019-05-25T03:44:02.953Z,11.30
2019-05-25T03:45:02.984Z,10.80
2019-05-25T03:46:02.937Z,13.70
2019-05-25T03:47:02.911Z,11.80
2019-05-25T03:48:02.952Z,13.20
2019-05-25T03:49:02.894Z,12.60
2019-05-25T03:50:02.896Z,14.40
2019-05-25T03:51:02.871Z,13.20
2019-05-25T03:52:02.856Z,9.90
2019-05-25T03:53:02.847Z,13.60
2019-05-25T03:54:02.834Z,10.90
2019-05-25T03:55:02.827Z,12.30
2019-05-25T03:56:05.801Z,12.80
2019-05-25T03:57:02.803Z,11.10
2019-05-25T03:58:02.800Z,11.10
2019-05-25T03:59:02.778Z,11.60
2019-05-25T04:00:02.773Z,13.00
2019-05-25T04:01:02.770Z,11.50
2019-05-25T04:02:02.764Z,11.80
2019-05-25T04:03:02.740Z,12.50
2019-05-25T04:04:02.722Z,15.70
2019-05-25T04:05:02.730Z,12.50
2019-05-25T04:06:02.724Z,11.60
2019-05-25T04:07:02.692Z,11.70
2019-05-25T04:08:02.687Z,13.00
2019-05-25T04:09:02.667Z,10.50
2019-05-25T04:10:02.728Z,13.40
2019-05-25T04:11:02.658Z,11.60
2019-05-25T04:12:02.639Z,11.30
2019-05-25T04:13:02.631Z,13.30
2019-05-25T04:14:02.646Z,11.90
2019-05-25T04:15:02.601Z,10.00
2019-05-25T04:16:02.600Z,11.90
2019-05-25T04:17:02.580Z,11.50
2019-05-25T04:18:02.572Z,15.40
2019-05-25T04:19:02.557Z,11.60
2019-05-25T04:20:02.551Z,12.50
2019-05-25T04:21:02.546Z,11.90
2019-05-25T04:22:02.528Z,13.20
2019-05-25T04:23:02.526Z,11.60
2019-05-25T04:24:02.505Z,16.20
2019-05-25T04:25:02.496Z,12.50
2019-05-25T04:26:02.493Z,14.40
2019-05-25T04:27:02.476Z,11.40
2019-05-25T04:28:02.457Z,11.70
2019-05-25T04:29:02.469Z,11.90
2019-05-25T04:30:02.454Z,12.40
2019-05-25T04:31:02.452Z,12.30
2019-05-25T04:32:02.422Z,13.50
2019-05-25T04:33:02.401Z,13.10
2019-05-25T04:34:02.393Z,16.30
2019-05-25T04:35:02.380Z,14.50
2019-05-25T04:36:02.384Z,12.70
2019-05-25T04:37:02.410Z,16.00
2019-05-25T04:38:02.349Z,12.40
2019-05-25T04:39:02.343Z,10.70
2019-05-25T04:40:02.334Z,13.60
2019-05-25T04:41:02.319Z,12.50
2019-05-25T04:42:02.302Z,13.60
2019-05-25T04:43:02.298Z,11.80
2019-05-25T04:44:02.287Z,13.70
2019-05-25T04:45:02.310Z,12.70
2019-05-25T04:46:02.290Z,12.80
2019-05-25T04:47:02.270Z,9.50
2019-05-25T04:48:02.236Z,11.40
2019-05-25T04:49:02.224Z,14.10
2019-05-25T04:50:02.214Z,12.20
2019-05-25T04:51:02.340Z,13.60
2019-05-25T04:52:02.205Z,14.50
2019-05-25T04:53:02.253Z,9.80
2019-05-25T04:54:02.170Z,9.90
2019-05-25T04:55:02.159Z,9.70
2019-05-25T04:56:02.151Z,16.60
2019-05-25T04:57:02.216Z,12.90
2019-05-25T04:58:02.133Z,15.70
2019-05-25T04:59:02.129Z,11.50
2019-05-25T05:00:02.106Z,12.70
2019-05-25T05:01:02.099Z,13.60
2019-05-25T05:02:02.107Z,12.50
2019-05-25T05:03:02.071Z,9.70
2019-05-25T05:04:02.067Z,12.00
2019-05-25T05:05:02.047Z,9.90
2019-05-25T05:06:02.044Z,11.00
2019-05-25T05:07:02.036Z,9.90
2019-05-25T05:08:02.159Z,13.00
2019-05-25T05:09:02.008Z,10.40
2019-05-25T05:10:03.327Z,10.70
2019-05-25T05:11:01.982Z,11.00
2019-05-25T05:12:01.997Z,11.00
2019-05-25T05:13:01.960Z,9.20
2019-05-25T05:14:01.948Z,10.10
2019-05-25T05:15:02.042Z,10.00
2019-05-25T05:16:01.932Z,12.90
2019-05-25T05:17:01.928Z,11.40
2019-05-25T05:18:01.904Z,12.00
2019-05-25T05:19:01.901Z,11.30
2019-05-25T05:20:01.914Z,13.80
2019-05-25T05:21:01.878Z,12.60
2019-05-25T05:22:05.547Z,10.20
2019-05-25T05:23:01.862Z,9.30
2019-05-25T05:24:01.853Z,10.70
2019-05-25T05:25:01.968Z,12.90
2019-05-25T05:26:01.823Z,12.30
2019-05-25T05:27:01.821Z,11.50
2019-05-25T05:28:01.796Z,10.80
2019-05-25T05:29:01.783Z,10.50
2019-05-25T05:30:02.067Z,11.30
2019-05-25T05:31:01.768Z,12.20
2019-05-25T05:32:01.750Z,10.40
2019-05-25T05:33:01.741Z,13.10
2019-05-25T05:34:01.770Z,10.80
2019-05-25T05:35:01.719Z,11.90
2019-05-25T05:36:01.709Z,9.10
2019-05-25T05:37:01.807Z,12.70
2019-05-25T05:38:01.693Z,12.30
2019-05-25T05:39:01.729Z,13.30
2019-05-25T05:40:01.665Z,9.00
2019-05-25T05:41:01.653Z,10.90
2019-05-25T05:42:01.643Z,10.40
2019-05-25T05:43:01.639Z,10.40
2019-05-25T05:44:01.623Z,10.10
2019-05-25T05:45:01.612Z,10.50
2019-05-25T05:46:01.599Z,9.00
2019-05-25T05:47:01.592Z,9.80
2019-05-25T05:48:01.601Z,10.70
2019-05-25T05:49:01.565Z,12.60
2019-05-25T05:50:01.555Z,9.80
2019-05-25T05:51:01.551Z,11.40
2019-05-25T05:52:01.557Z,10.30
2019-05-25T05:53:01.528Z,13.30
2019-05-25T05:54:01.544Z,11.30
2019-05-25T05:55:01.503Z,8.90
2019-05-25T05:56:01.490Z,11.70
2019-05-25T05:57:11.593Z,10.20
2019-05-25T05:58:02.522Z,11.60
2019-05-25T05:59:01.833Z,11.30
2019-05-25T06:00:01.458Z,9.90
2019-05-25T06:01:01.433Z,11.10
2019-05-25T06:02:01.426Z,11.60
2019-05-25T06:03:01.438Z,13.30
2019-05-25T06:04:01.408Z,9.50
2019-05-25T06:05:01.471Z,10.40
2019-05-25T06:06:01.423Z,10.30
2019-05-25T06:07:01.369Z,11.80
2019-05-25T06:08:01.365Z,9.90
2019-05-25T06:09:01.348Z,9.50
2019-05-25T06:10:01.342Z,10.40
2019-05-25T06:11:01.332Z,11.80
2019-05-25T06:12:01.321Z,11.70
2019-05-25T06:13:01.377Z,11.80
2019-05-25T06:14:01.315Z,10.00
2019-05-25T06:15:01.287Z,9.20
2019-05-25T06:16:01.278Z,11.20
2019-05-25T06:17:01.289Z,10.80
2019-05-25T06:18:01.294Z,9.40
2019-05-25T06:19:01.239Z,11.40
2019-05-25T06:20:01.229Z,15.30
2019-05-25T06:21:01.223Z,9.00
2019-05-25T06:22:01.207Z,9.10
2019-05-25T06:23:01.213Z,9.10
2019-05-25T06:24:01.185Z,11.60
2019-05-25T06:25:01.178Z,10.80
2019-05-25T06:26:01.166Z,9.90
2019-05-25T06:27:01.151Z,13.20
2019-05-25T06:28:01.162Z,10.30
2019-05-25T06:29:01.138Z,10.30
2019-05-25T06:30:01.125Z,11.20
2019-05-25T06:31:01.115Z,11.10
2019-05-25T06:32:01.098Z,12.40
2019-05-25T06:33:01.100Z,11.00
2019-05-25T06:34:01.092Z,10.70
2019-05-25T06:35:01.077Z,11.20
2019-05-25T06:36:01.054Z,10.30
2019-05-25T06:37:01.059Z,9.40
2019-05-25T06:38:01.045Z,9.50
2019-05-25T06:39:01.021Z,9.80
2019-05-25T06:40:01.031Z,16.80
2019-05-25T06:41:01.001Z,9.20
2019-05-25T06:42:01.009Z,8.50
2019-05-25T06:43:00.995Z,10.00
2019-05-25T06:44:00.971Z,8.80
2019-05-25T06:45:00.974Z,8.30
2019-05-25T06:46:00.978Z,13.60
2019-05-25T06:47:00.940Z,12.80
2019-05-25T06:48:00.925Z,9.50
2019-05-25T06:49:00.913Z,9.30
2019-05-25T06:50:00.903Z,12.50
2019-05-25T06:51:00.897Z,12.80
2019-05-25T06:52:00.879Z,12.60
2019-05-25T06:53:00.869Z,10.90
2019-05-25T06:54:00.862Z,10.20
2019-05-25T06:55:00.849Z,10.60
2019-05-25T06:56:00.836Z,8.80
2019-05-25T06:57:00.887Z,13.70
2019-05-25T06:58:00.819Z,10.30
2019-05-25T06:59:00.812Z,12.30
2019-05-25T07:00:00.802Z,11.10
2019-05-25T07:01:00.779Z,10.80
2019-05-25T07:02:00.773Z,11.70
2019-05-25T07:03:00.786Z,11.20
2019-05-25T07:04:00.943Z,9.90
2019-05-25T07:05:00.739Z,9.30
2019-05-25T07:06:00.733Z,9.70
2019-05-25T07:07:00.787Z,9.80
2019-05-25T07:08:00.728Z,13.00
2019-05-25T07:09:00.706Z,9.50
2019-05-25T07:10:00.689Z,9.70
2019-05-25T07:11:00.670Z,11.70
2019-05-25T07:12:00.682Z,10.40
2019-05-25T07:13:00.664Z,9.30
2019-05-25T07:14:00.660Z,8.80
2019-05-25T07:15:00.669Z,11.50
2019-05-25T07:16:00.614Z,10.00
2019-05-25T07:17:00.603Z,7.00
2019-05-25T07:18:00.597Z,9.80
2019-05-25T07:19:00.595Z,13.30
2019-05-25T07:20:00.572Z,8.90
2019-05-25T07:21:00.559Z,8.40
2019-05-25T07:22:00.549Z,13.00
2019-05-25T07:23:00.537Z,8.60
2019-05-25T07:24:00.539Z,12.20
2019-05-25T07:25:00.535Z,11.90
2019-05-25T07:26:00.539Z,10.90
2019-05-25T07:27:00.497Z,10.30
2019-05-25T07:28:00.596Z,9.00
2019-05-25T07:29:00.494Z,11.60
2019-05-25T07:30:00.466Z,8.50
2019-05-25T07:31:00.464Z,10.60
2019-05-25T07:32:00.444Z,12.10
2019-05-25T07:33:00.454Z,10.00
2019-05-25T07:34:00.419Z,11.60
2019-05-25T07:35:00.464Z,10.40
2019-05-25T07:36:00.415Z,8.70
2019-05-25T07:37:00.387Z,8.70
2019-05-25T07:38:00.414Z,9.90
2019-05-25T07:39:00.366Z,8.80
2019-05-25T07:40:00.359Z,10.20
2019-05-25T07:41:00.344Z,9.60
2019-05-25T07:42:00.357Z,8.00
2019-05-25T07:43:00.345Z,8.90
2019-05-25T07:44:00.317Z,9.40
2019-05-25T07:45:00.303Z,12.00
2019-05-25T07:46:00.289Z,10.60
2019-05-25T07:47:00.278Z,8.00
2019-05-25T07:48:00.272Z,9.20
2019-05-25T07:49:00.255Z,8.40
2019-05-25T07:50:00.268Z,11.70
2019-05-25T07:51:00.267Z,7.40
2019-05-25T07:52:02.608Z,13.00
2019-05-25T07:53:00.211Z,10.10
2019-05-25T07:54:00.203Z,8.40
2019-05-25T07:55:00.192Z,11.00
2019-05-25T07:56:00.176Z,8.30
2019-05-25T07:57:00.170Z,7.90
2019-05-25T07:58:15.879Z,11.20
2019-05-25T07:59:01.143Z,13.80
2019-05-25T08:00:00.180Z,7.40
2019-05-25T08:01:00.126Z,6.90
2019-05-25T08:02:02.984Z,11.10
2019-05-25T08:03:00.103Z,11.40
2019-05-25T08:04:00.107Z,11.00
2019-05-25T08:05:00.123Z,14.40
2019-05-25T08:06:00.067Z,8.90
2019-05-25T08:07:00.061Z,8.60
2019-05-25T08:08:00.152Z,12.10
2019-05-25T08:09:00.036Z,12.70
2019-05-25T08:10:00.027Z,8.80
2019-05-25T08:11:00.055Z,10.60
2019-05-25T08:12:00.001Z,10.00
2019-05-25T08:12:59.990Z,9.10
2019-05-25T08:13:59.982Z,9.30
2019-05-25T08:14:59.981Z,8.10
2019-05-25T08:15:59.984Z,8.70
2019-05-25T08:17:00.107Z,12.60
2019-05-25T08:17:59.947Z,9.10
2019-05-25T08:18:59.949Z,10.30
2019-05-25T08:19:59.931Z,7.70
2019-05-25T08:20:59.948Z,7.80
2019-05-25T08:21:59.910Z,9.20
2019-05-25T08:22:59.879Z,7.90
2019-05-25T08:23:59.869Z,10.20
2019-05-25T08:24:59.864Z,9.30
2019-05-25T08:25:59.868Z,8.50
2019-05-25T08:26:59.970Z,7.90
2019-05-25T08:27:59.833Z,8.10
2019-05-25T08:28:59.842Z,9.90
2019-05-25T08:29:59.802Z,7.40
2019-05-25T08:31:01.429Z,11.20
2019-05-25T08:31:59.787Z,12.10
2019-05-25T08:32:59.772Z,8.20
2019-05-25T08:33:59.759Z,8.70
2019-05-25T08:34:59.752Z,13.20
2019-05-25T08:35:59.761Z,10.70
2019-05-25T08:36:59.726Z,10.20
2019-05-25T08:37:59.765Z,11.30
2019-05-25T08:38:59.750Z,8.30
2019-05-25T08:39:59.696Z,7.60
2019-05-25T08:40:59.697Z,9.80
2019-05-25T08:41:59.682Z,5.50
2019-05-25T08:42:59.671Z,10.20
2019-05-25T08:43:59.676Z,8.20
2019-05-25T08:44:59.660Z,6.30
2019-05-25T08:45:59.692Z,10.00
2019-05-25T08:46:59.637Z,7.60
2019-05-25T08:47:59.613Z,8.80
2019-05-25T08:48:59.604Z,8.00
2019-05-25T08:49:59.666Z,7.20
2019-05-25T08:50:59.864Z,8.90
2019-05-25T08:51:59.565Z,6.40
2019-05-25T08:52:59.557Z,7.30
2019-05-25T08:53:59.551Z,7.40
2019-05-25T08:54:59.550Z,7.60
2019-05-25T08:55:59.537Z,7.20
2019-05-25T08:56:59.554Z,8.60
2019-05-25T08:57:59.513Z,7.20
2019-05-25T08:58:59.519Z,9.20
2019-05-25T08:59:59.603Z,5.80
2019-05-25T09:00:59.490Z,8.80
2019-05-25T09:01:59.465Z,8.50
2019-05-25T09:02:59.448Z,6.20
2019-05-25T09:03:59.435Z,6.10
2019-05-25T09:04:59.431Z,9.40
2019-05-25T09:05:59.440Z,7.40
2019-05-25T09:06:59.427Z,7.50
2019-05-25T09:07:59.399Z,5.00
2019-05-25T09:08:59.382Z,5.80
2019-05-25T09:09:59.376Z,7.00
2019-05-25T09:10:59.363Z,6.20
2019-05-25T09:11:59.383Z,8.80
2019-05-25T09:12:59.353Z,5.70
2019-05-25T09:13:59.328Z,6.40
2019-05-25T09:14:59.318Z,5.40
2019-05-25T09:15:59.307Z,7.10
2019-05-25T09:16:59.300Z,5.20
2019-05-25T09:17:59.288Z,5.10
2019-05-25T09:18:59.301Z,7.10
2019-05-25T09:19:59.263Z,4.90
2019-05-25T09:20:59.254Z,4.20
2019-05-25T09:22:02.920Z,4.50
2019-05-25T09:22:59.237Z,4.00
2019-05-25T09:23:59.228Z,5.80
2019-05-25T09:24:59.267Z,9.00
2019-05-25T09:25:59.205Z,5.20
2019-05-25T09:26:59.208Z,7.20
2019-05-25T09:27:59.178Z,5.10
2019-05-25T09:29:04.468Z,9.50
2019-05-25T09:30:00.166Z,9.20
2019-05-25T09:30:59.147Z,6.60
2019-05-25T09:31:59.144Z,6.10
2019-05-25T09:32:59.125Z,5.50
2019-05-25T09:33:59.113Z,6.40
2019-05-25T09:34:59.112Z,4.40
2019-05-25T09:35:59.094Z,4.10
2019-05-25T09:36:59.097Z,5.20
2019-05-25T09:37:59.072Z,3.20
2019-05-25T09:38:59.065Z,4.90
2019-05-25T09:39:59.056Z,4.40
2019-05-25T09:40:59.053Z,5.10
2019-05-25T09:41:59.046Z,3.60
2019-05-25T09:42:59.016Z,4.90
2019-05-25T09:43:59.011Z,6.10
2019-05-25T09:44:59.013Z,4.00
2019-05-25T09:45:58.988Z,4.10
2019-05-25T09:46:59.016Z,6.20
2019-05-25T09:47:59.138Z,4.90
2019-05-25T09:48:58.955Z,5.90
2019-05-25T09:49:58.948Z,6.00
2019-05-25T09:50:58.958Z,7.10
2019-05-25T09:51:58.953Z,5.60
2019-05-25T09:52:58.915Z,6.80
2019-05-25T09:53:58.908Z,7.00
2019-05-25T09:54:58.893Z,5.30
2019-05-25T09:55:58.882Z,6.30
2019-05-25T09:56:58.868Z,10.50
2019-05-25T09:57:59.097Z,5.50
2019-05-25T09:58:58.872Z,6.70
2019-05-25T09:59:58.835Z,5.70
2019-05-25T10:00:58.859Z,4.80
2019-05-25T10:01:58.820Z,6.90
2019-05-25T10:02:58.817Z,5.50
2019-05-25T10:03:58.805Z,3.30
2019-05-25T10:04:58.818Z,3.50
2019-05-25T10:05:58.768Z,8.50
2019-05-25T10:06:58.764Z,5.40
2019-05-25T10:07:58.769Z,7.50
2019-05-25T10:08:58.738Z,4.80
2019-05-25T10:09:58.725Z,7.10
2019-05-25T10:10:58.718Z,5.80
2019-05-25T10:11:58.713Z,6.10
2019-05-25T10:12:58.697Z,9.00
2019-05-25T10:13:58.683Z,6.60
2019-05-25T10:14:58.675Z,5.00
2019-05-25T10:15:58.661Z,3.40
2019-05-25T10:16:58.644Z,4.50
2019-05-25T10:17:58.637Z,4.80
2019-05-25T10:18:58.625Z,4.70
2019-05-25T10:19:58.907Z,5.00
2019-05-25T10:20:58.602Z,2.10
2019-05-25T10:21:59.550Z,3.80
2019-05-25T10:22:58.591Z,4.10
2019-05-25T10:23:58.682Z,3.00
2019-05-25T10:24:58.562Z,4.60
2019-05-25T10:25:58.547Z,3.40
2019-05-25T10:26:58.538Z,4.60
2019-05-25T10:27:58.541Z,6.10
2019-05-25T10:28:58.519Z,6.30
2019-05-25T10:29:58.509Z,5.40
2019-05-25T10:30:58.523Z,6.40
2019-05-25T10:31:58.492Z,5.50
2019-05-25T10:32:58.505Z,4.60
2019-05-25T10:33:58.461Z,6.50
2019-05-25T10:34:58.513Z,3.50
2019-05-25T10:35:58.446Z,3.30
2019-05-25T10:36:58.454Z,5.20
2019-05-25T10:37:58.432Z,6.60
2019-05-25T10:38:58.410Z,4.00
2019-05-25T10:39:58.406Z,5.00
2019-05-25T10:40:58.738Z,3.40
2019-05-25T10:41:58.382Z,2.50
2019-05-25T10:42:58.382Z,4.20
2019-05-25T10:43:58.374Z,4.40
2019-05-25T10:44:58.366Z,3.90
2019-05-25T10:45:58.347Z,7.10
2019-05-25T10:46:58.326Z,6.00
2019-05-25T10:47:58.322Z,4.50
2019-05-25T10:48:58.394Z,9.60
2019-05-25T10:49:58.295Z,3.50
2019-05-25T10:50:58.286Z,3.80
2019-05-25T10:51:58.269Z,5.00
2019-05-25T10:52:58.322Z,3.90
2019-05-25T10:53:58.250Z,7.70
2019-05-25T10:54:58.236Z,4.50
2019-05-25T10:55:58.254Z,3.50
2019-05-25T10:56:58.219Z,5.80
2019-05-25T10:57:58.213Z,3.50
2019-05-25T10:58:58.261Z,4.30
2019-05-25T10:59:58.183Z,3.40
2019-05-25T11:00:58.186Z,5.40
2019-05-25T11:01:58.164Z,3.60
2019-05-25T11:02:58.151Z,3.10
2019-05-25T11:03:58.194Z,3.10
2019-05-25T11:04:58.128Z,3.30
2019-05-25T11:05:58.141Z,4.30
2019-05-25T11:06:58.130Z,3.40
2019-05-25T11:07:58.116Z,4.20
2019-05-25T11:08:58.112Z,3.90
2019-05-25T11:09:58.104Z,7.40
2019-05-25T11:10:58.071Z,3.10
2019-05-25T11:11:58.051Z,5.40
2019-05-25T11:12:58.055Z,4.20
2019-05-25T11:13:58.033Z,5.20
2019-05-25T11:14:58.027Z,4.50
2019-05-25T11:15:58.006Z,3.80
2019-05-25T11:16:57.997Z,3.20
2019-05-25T11:17:58.004Z,4.80
2019-05-25T11:18:57.988Z,3.40
2019-05-25T11:19:57.986Z,4.00
2019-05-25T11:20:57.951Z,6.80
2019-05-25T11:21:57.943Z,2.80
2019-05-25T11:22:57.962Z,4.40
2019-05-25T11:23:57.929Z,7.10
2019-05-25T11:24:57.909Z,4.90
2019-05-25T11:25:58.019Z,5.70
2019-05-25T11:26:59.723Z,4.00
2019-05-25T11:27:57.884Z,6.00
2019-05-25T11:28:57.875Z,5.60
2019-05-25T11:30:08.391Z,5.40
2019-05-25T11:30:58.869Z,8.50
2019-05-25T11:32:02.088Z,9.70
2019-05-25T11:32:58.912Z,6.80
2019-05-25T11:33:57.824Z,4.70
2019-05-25T11:34:57.800Z,2.70
2019-05-25T11:35:57.794Z,6.50
2019-05-25T11:36:57.778Z,5.90
2019-05-25T11:37:57.780Z,3.50
2019-05-25T11:38:57.765Z,4.10
2019-05-25T11:39:57.760Z,6.00
2019-05-25T11:40:57.736Z,3.80
2019-05-25T11:41:57.726Z,4.40
2019-05-25T11:42:57.716Z,6.40
2019-05-25T11:43:57.719Z,2.40
2019-05-25T11:44:57.696Z,5.70
2019-05-25T11:45:57.681Z,5.60
2019-05-25T11:46:57.669Z,3.10
2019-05-25T11:47:57.737Z,4.50
2019-05-25T11:48:57.661Z,5.60
2019-05-25T11:49:57.636Z,3.50
2019-05-25T11:50:57.625Z,7.40
2019-05-25T11:51:57.641Z,3.80
2019-05-25T11:52:57.608Z,4.60
2019-05-25T11:53:57.604Z,4.00
2019-05-25T11:54:57.644Z,4.10
2019-05-25T11:55:57.571Z,3.20
2019-05-25T11:56:57.575Z,4.40
2019-05-25T11:57:57.558Z,2.50
2019-05-25T11:58:57.547Z,2.00
2019-05-25T11:59:57.554Z,2.10
2019-05-25T12:00:57.520Z,2.00
2019-05-25T12:01:57.647Z,4.20
2019-05-25T12:02:57.532Z,4.40
2019-05-25T12:03:57.530Z,1.50
2019-05-25T12:04:57.604Z,4.40
2019-05-25T12:05:57.467Z,1.20
2019-05-25T12:06:57.473Z,2.80
2019-05-25T12:07:57.659Z,3.50
2019-05-25T12:08:57.515Z,3.70
2019-05-25T12:09:57.483Z,4.70
2019-05-25T12:10:57.417Z,3.40
2019-05-25T12:11:57.413Z,1.70
2019-05-25T12:12:57.422Z,1.30
2019-05-25T12:13:57.422Z,3.70
2019-05-25T12:14:57.370Z,1.60
2019-05-25T12:15:57.363Z,1.20
2019-05-25T12:16:57.349Z,1.80
2019-05-25T12:17:57.336Z,4.00
2019-05-25T12:18:57.332Z,1.80
2019-05-25T12:19:57.358Z,1.80
2019-05-25T12:20:57.304Z,2.10
2019-05-25T12:21:57.290Z,3.10
2019-05-25T12:22:57.431Z,4.60
2019-05-25T12:23:57.281Z,3.00
2019-05-25T12:24:57.260Z,1.60
2019-05-25T12:25:57.266Z,1.50
2019-05-25T12:26:57.239Z,2.70
2019-05-25T12:27:57.230Z,28.80
2019-05-25T12:28:57.227Z,2.10
2019-05-25T12:29:57.207Z,2.90
2019-05-25T12:30:57.200Z,1.70
2019-05-25T12:32:04.202Z,5.40
2019-05-25T12:32:58.180Z,3.00
2019-05-25T12:33:57.200Z,2.10
2019-05-25T12:34:57.157Z,1.60
2019-05-25T12:35:57.147Z,2.20
2019-05-25T12:36:57.148Z,4.40
2019-05-25T12:37:57.242Z,2.20
2019-05-25T12:38:57.194Z,5.50
2019-05-25T12:39:57.109Z,5.20
2019-05-25T12:40:57.095Z,1.70
2019-05-25T12:41:57.079Z,4.90
2019-05-25T12:42:57.067Z,2.50
2019-05-25T12:43:57.055Z,5.40
2019-05-25T12:44:57.113Z,3.30
2019-05-25T12:45:57.071Z,3.00
2019-05-25T12:46:57.056Z,2.00
2019-05-25T12:47:57.053Z,3.30
2019-05-25T12:48:57.003Z,3.50
2019-05-25T12:49:56.999Z,3.00
2019-05-25T12:50:56.982Z,2.60
2019-05-25T12:51:56.975Z,2.50
2019-05-25T12:52:56.968Z,3.70
2019-05-25T12:53:56.988Z,2.30
2019-05-25T12:54:57.001Z,3.20
2019-05-25T12:55:56.949Z,3.70
2019-05-25T12:56:56.921Z,3.50
2019-05-25T12:57:56.914Z,3.00
2019-05-25T12:58:56.894Z,9.80
2019-05-25T13:00:13.891Z,2.70
2019-05-25T13:00:58.047Z,6.20
2019-05-25T13:01:56.875Z,3.10
2019-05-25T13:02:56.853Z,3.80
2019-05-25T13:03:56.843Z,3.50
2019-05-25T13:04:56.852Z,3.20
2019-05-25T13:05:56.819Z,5.00
2019-05-25T13:06:56.851Z,2.70
2019-05-25T13:07:57.181Z,3.10